createdAt,value
2018-07-22T00:00:39.491Z,31.90
2018-07-22T00:02:42.640Z,31.73
2018-07-22T00:04:45.786Z,34.00
2018-07-22T00:06:48.920Z,33.27
2018-07-22T00:08:52.091Z,34.20
2018-07-22T00:10:55.236Z,35.67
2018-07-22T00:12:59.252Z,33.97
2018-07-22T00:15:02.368Z,32.50
2018-07-22T00:17:05.507Z,34.50
2018-07-22T00:19:08.672Z,32.80
2018-07-22T00:21:11.840Z,34.17
2018-07-22T00:23:15.010Z,33.80
2018-07-22T00:25:18.235Z,38.07
2018-07-22T00:27:21.391Z,37.10
2018-07-22T00:29:24.560Z,34.73
2018-07-22T00:31:27.715Z,40.30
2018-07-22T00:33:30.884Z,36.93
2018-07-22T00:35:34.022Z,35.30
2018-07-22T00:37:37.448Z,37.67
2018-07-22T00:39:40.586Z,40.33
2018-07-22T00:41:43.742Z,38.27
2018-07-22T00:43:46.884Z,36.80
2018-07-22T00:45:50.028Z,37.27
2018-07-22T00:47:53.181Z,36.30
2018-07-22T00:49:56.895Z,38.10
2018-07-22T00:52:00.060Z,39.43
2018-07-22T00:54:04.244Z,36.53
2018-07-22T00:56:07.464Z,36.30
2018-07-22T00:58:10.600Z,36.97
2018-07-22T01:00:13.800Z,37.83
2018-07-22T01:02:16.896Z,37.77
2018-07-22T01:04:20.044Z,35.60
2018-07-22T01:06:23.159Z,34.20
2018-07-22T01:08:26.387Z,37.47
2018-07-22T01:10:29.549Z,38.70
2018-07-22T01:12:32.683Z,38.20
2018-07-22T01:14:35.876Z,37.37
2018-07-22T01:16:39.024Z,35.63
2018-07-22T01:18:41.936Z,38.23
2018-07-22T01:20:44.899Z,37.50
2018-07-22T01:22:47.800Z,36.23
2018-07-22T01:24:50.707Z,40.03
2018-07-22T01:26:53.627Z,36.63
2018-07-22T01:28:56.619Z,36.00
2018-07-22T01:30:59.527Z,37.47
2018-07-22T01:33:02.427Z,38.90
2018-07-22T01:35:05.359Z,37.93
2018-07-22T01:37:08.264Z,38.50
2018-07-22T01:39:11.660Z,35.33
2018-07-22T01:41:14.627Z,38.00
2018-07-22T01:43:17.624Z,38.37
2018-07-22T01:45:20.523Z,38.83
2018-07-22T01:47:23.463Z,36.57
2018-07-22T01:49:26.381Z,38.10
2018-07-22T01:51:29.316Z,40.30
2018-07-22T01:53:32.316Z,41.67
2018-07-22T01:55:35.227Z,38.43
2018-07-22T01:57:38.127Z,39.80
2018-07-22T01:59:41.044Z,39.97
2018-07-22T02:01:44.092Z,41.43
2018-07-22T02:03:46.935Z,40.87
2018-07-22T02:05:49.834Z,40.50
2018-07-22T02:07:52.735Z,40.77
2018-07-22T02:09:55.743Z,40.63
2018-07-22T02:11:58.659Z,40.97
2018-07-22T02:14:01.647Z,41.47
2018-07-22T02:16:04.554Z,40.87
2018-07-22T02:18:07.467Z,43.87
2018-07-22T02:20:10.390Z,42.13
2018-07-22T02:22:13.327Z,44.70
2018-07-22T02:24:16.332Z,43.47
2018-07-22T02:26:19.294Z,43.90
2018-07-22T02:28:22.285Z,42.30
2018-07-22T02:30:25.175Z,45.33
2018-07-22T02:32:28.075Z,45.33
2018-07-22T02:34:30.987Z,45.03
2018-07-22T02:36:34.015Z,41.53
2018-07-22T02:38:36.927Z,43.67
2018-07-22T02:40:39.887Z,47.57
2018-07-22T02:42:42.851Z,46.77
2018-07-22T02:44:45.843Z,45.50
2018-07-22T02:46:48.822Z,43.50
2018-07-22T02:48:51.727Z,45.70
2018-07-22T02:50:54.664Z,45.20
2018-07-22T02:52:57.584Z,49.07
2018-07-22T02:55:00.487Z,46.80
2018-07-22T02:57:03.407Z,49.37
2018-07-22T02:59:06.341Z,49.40
2018-07-22T03:01:09.847Z,48.27
2018-07-22T03:03:12.788Z,50.70
2018-07-22T03:05:15.771Z,48.00
2018-07-22T03:07:18.740Z,48.70
2018-07-22T03:09:21.732Z,49.40
2018-07-22T03:11:24.703Z,47.97
2018-07-22T03:13:27.590Z,52.67
2018-07-22T03:15:30.587Z,52.20
2018-07-22T03:17:33.556Z,53.30
2018-07-22T03:19:36.531Z,51.57
2018-07-22T03:21:39.411Z,53.27
2018-07-22T03:23:42.379Z,48.17
2018-07-22T03:25:45.275Z,53.10
2018-07-22T03:27:48.251Z,54.50
2018-07-22T03:29:51.231Z,53.90
2018-07-22T03:31:54.209Z,51.23
2018-07-22T03:33:57.079Z,48.90
2018-07-22T03:35:59.983Z,51.03
2018-07-22T03:38:02.878Z,52.33
2018-07-22T03:40:05.839Z,48.40
2018-07-22T03:42:08.855Z,51.13
2018-07-22T03:44:11.702Z,49.37
2018-07-22T03:46:14.705Z,49.77
2018-07-22T03:48:17.587Z,50.63
2018-07-22T03:50:20.485Z,49.07
2018-07-22T03:52:23.356Z,49.63
2018-07-22T03:54:26.234Z,53.07
2018-07-22T03:56:29.139Z,51.10
2018-07-22T03:58:32.065Z,49.30
2018-07-22T04:00:35.074Z,45.50
2018-07-22T04:02:37.971Z,50.20
2018-07-22T04:04:40.863Z,49.60
2018-07-22T04:06:43.773Z,46.60
2018-07-22T04:08:47.303Z,48.47
2018-07-22T04:10:50.270Z,50.30
2018-07-22T04:12:53.245Z,46.30
2018-07-22T04:14:56.231Z,46.33
2018-07-22T04:16:59.135Z,45.07
2018-07-22T04:19:02.047Z,43.57
2018-07-22T04:21:04.987Z,43.43
2018-07-22T04:23:07.915Z,45.17
2018-07-22T04:25:10.838Z,42.50
2018-07-22T04:27:13.807Z,42.40
2018-07-22T04:29:16.795Z,45.10
2018-07-22T04:31:19.908Z,42.97
2018-07-22T04:33:22.823Z,42.70
2018-07-22T04:35:25.966Z,42.10
2018-07-22T04:37:28.933Z,41.73
2018-07-22T04:39:31.850Z,41.23
2018-07-22T04:41:34.788Z,38.90
2018-07-22T04:43:37.978Z,37.93
2018-07-22T04:45:41.191Z,39.97
2018-07-22T04:47:44.401Z,41.30
2018-07-22T04:49:47.310Z,39.50
2018-07-22T04:51:50.473Z,39.13
2018-07-22T04:53:53.636Z,36.97
2018-07-22T04:55:56.552Z,37.17
2018-07-22T04:57:59.691Z,38.10
2018-07-22T05:00:02.856Z,34.50
2018-07-22T05:02:06.015Z,35.87
2018-07-22T05:04:09.151Z,30.83
2018-07-22T05:06:12.305Z,28.20
2018-07-22T05:08:15.452Z,23.87
2018-07-22T05:10:18.591Z,24.30
2018-07-22T05:12:21.790Z,23.53
2018-07-22T05:14:24.965Z,23.73
2018-07-22T05:16:28.123Z,23.10
2018-07-22T05:18:31.287Z,20.60
2018-07-22T05:20:34.528Z,20.90
2018-07-22T05:22:37.668Z,22.23
2018-07-22T05:24:40.835Z,20.50
2018-07-22T05:26:44.011Z,21.03
2018-07-22T05:28:47.152Z,20.73
2018-07-22T05:30:50.273Z,20.50
2018-07-22T05:32:53.391Z,19.03
2018-07-22T05:34:56.499Z,18.43
2018-07-22T05:36:59.382Z,19.57
2018-07-22T05:39:02.399Z,18.20
2018-07-22T05:41:05.781Z,18.43
2018-07-22T05:43:08.667Z,18.77
2018-07-22T05:45:11.637Z,18.40
2018-07-22T05:47:14.731Z,17.87
2018-07-22T05:49:17.806Z,17.40
2018-07-22T05:51:20.895Z,16.30
2018-07-22T05:53:23.974Z,17.57
2018-07-22T05:55:27.061Z,16.83
2018-07-22T05:57:30.183Z,15.80
2018-07-22T05:59:33.132Z,17.27
2018-07-22T06:01:36.119Z,15.53
2018-07-22T06:03:39.211Z,14.53
2018-07-22T06:05:42.312Z,15.77
2018-07-22T06:07:45.527Z,15.47
2018-07-22T06:09:48.616Z,14.30
2018-07-22T06:11:51.735Z,15.37
2018-07-22T06:13:54.811Z,14.80
2018-07-22T06:15:57.916Z,15.00
2018-07-22T06:18:01.155Z,13.00
2018-07-22T06:20:05.861Z,12.90
2018-07-22T06:22:08.955Z,14.27
2018-07-22T06:24:12.052Z,13.93
2018-07-22T06:26:15.164Z,13.23
2018-07-22T06:28:18.247Z,13.60
2018-07-22T06:30:21.431Z,12.90
2018-07-22T06:32:24.548Z,13.07
2018-07-22T06:34:27.676Z,13.63
2018-07-22T06:36:30.851Z,13.40
2018-07-22T06:38:34.038Z,14.23
2018-07-22T06:40:37.109Z,12.97
2018-07-22T06:42:40.264Z,12.60
2018-07-22T06:44:43.382Z,13.90
2018-07-22T06:46:46.259Z,12.30
2018-07-22T06:48:49.148Z,12.03
2018-07-22T06:50:52.244Z,11.57
2018-07-22T06:52:55.367Z,14.00
2018-07-22T06:54:58.465Z,12.23
2018-07-22T06:57:01.469Z,12.30
2018-07-22T06:59:04.695Z,12.07
2018-07-22T07:01:07.767Z,12.00
2018-07-22T07:03:10.888Z,12.87
2018-07-22T07:05:14.027Z,13.60
2018-07-22T07:07:17.370Z,15.67
2018-07-22T07:09:20.501Z,15.23
2018-07-22T07:11:23.583Z,15.37
2018-07-22T07:13:26.679Z,15.60
2018-07-22T07:15:29.791Z,16.50
2018-07-22T07:17:32.880Z,16.10
2018-07-22T07:19:35.994Z,15.37
2018-07-22T07:21:39.107Z,16.73
2018-07-22T07:23:42.060Z,16.93
2018-07-22T07:25:44.978Z,16.93
2018-07-22T07:27:48.084Z,14.60
2018-07-22T07:29:51.179Z,15.87
2018-07-22T07:31:54.276Z,17.10
2018-07-22T07:33:57.412Z,16.33
2018-07-22T07:36:00.538Z,16.63
2018-07-22T07:38:03.756Z,16.80
2018-07-22T07:40:06.924Z,15.37
2018-07-22T07:42:10.055Z,15.90
2018-07-22T07:44:13.143Z,14.70
2018-07-22T07:46:16.092Z,15.57
2018-07-22T07:48:19.195Z,13.90
2018-07-22T07:50:22.296Z,13.93
2018-07-22T07:52:25.439Z,15.20
2018-07-22T07:54:28.619Z,13.93
2018-07-22T07:56:32.452Z,15.17
2018-07-22T07:58:35.570Z,15.23
2018-07-22T08:00:38.672Z,14.50
2018-07-22T08:02:41.766Z,14.03
2018-07-22T08:04:44.948Z,12.30
2018-07-22T08:06:48.047Z,12.10
2018-07-22T08:08:51.147Z,12.20
2018-07-22T08:10:54.239Z,12.30
2018-07-22T08:12:57.369Z,11.20
2018-07-22T08:15:00.328Z,11.87
2018-07-22T08:17:03.441Z,11.60
2018-07-22T08:19:06.562Z,11.90
2018-07-22T08:21:09.456Z,12.53
2018-07-22T08:23:12.563Z,11.10
2018-07-22T08:25:15.703Z,11.50
2018-07-22T08:27:18.800Z,11.10
2018-07-22T08:29:37.434Z,9.73
2018-07-22T08:31:40.525Z,10.60
2018-07-22T08:33:43.636Z,12.87
2018-07-22T08:35:46.611Z,11.47
2018-07-22T08:37:50.549Z,11.47
2018-07-22T08:39:53.631Z,11.03
2018-07-22T08:41:57.283Z,9.50
2018-07-22T08:44:00.376Z,8.93
2018-07-22T08:46:03.468Z,8.53
2018-07-22T08:48:06.944Z,7.27
2018-07-22T08:50:10.056Z,7.27
2018-07-22T08:52:13.144Z,7.73
2018-07-22T08:54:16.244Z,8.00
2018-07-22T08:56:19.328Z,5.83
2018-07-22T08:58:22.416Z,6.53
2018-07-22T09:00:25.536Z,5.57
2018-07-22T09:02:28.672Z,6.50
2018-07-22T09:04:31.576Z,5.47
2018-07-22T09:06:34.767Z,5.67
2018-07-22T09:08:37.887Z,4.50
2018-07-22T09:10:41.036Z,5.10
2018-07-22T09:12:44.164Z,6.00
2018-07-22T09:14:47.311Z,6.03
2018-07-22T09:16:50.439Z,4.73
2018-07-22T09:18:53.725Z,5.40
2018-07-22T09:20:56.865Z,4.40
2018-07-22T09:22:59.999Z,4.60
2018-07-22T09:25:03.152Z,4.63
2018-07-22T09:27:06.515Z,4.70
2018-07-22T09:29:10.243Z,4.23
2018-07-22T09:31:13.386Z,4.90
2018-07-22T09:33:16.335Z,4.30
2018-07-22T09:35:19.476Z,5.13
2018-07-22T09:37:22.607Z,4.30
2018-07-22T09:39:25.757Z,4.00
2018-07-22T09:41:28.928Z,5.50
2018-07-22T09:43:32.052Z,4.90
2018-07-22T09:45:35.453Z,5.10
2018-07-22T09:47:38.607Z,4.60
2018-07-22T09:49:41.764Z,4.80
2018-07-22T09:51:44.903Z,4.17
2018-07-22T09:53:48.124Z,4.10
2018-07-22T09:55:51.236Z,4.20
2018-07-22T09:57:54.360Z,3.83
2018-07-22T09:59:57.505Z,3.93
2018-07-22T10:02:00.696Z,3.87
2018-07-22T10:04:03.856Z,4.97
2018-07-22T10:06:06.989Z,4.40
2018-07-22T10:08:10.260Z,4.20
2018-07-22T10:10:13.424Z,4.63
2018-07-22T10:12:16.407Z,4.53
2018-07-22T10:14:19.386Z,4.27
2018-07-22T10:16:22.512Z,3.90
2018-07-22T10:18:25.648Z,5.30
2018-07-22T10:20:28.816Z,4.33
2018-07-22T10:22:32.083Z,4.03
2018-07-22T10:24:34.996Z,4.10
2018-07-22T10:26:37.978Z,4.03
2018-07-22T10:28:41.159Z,5.13
2018-07-22T10:30:44.251Z,3.67
2018-07-22T10:32:47.424Z,4.20
2018-07-22T10:34:50.574Z,3.87
2018-07-22T10:36:53.716Z,4.30
2018-07-22T10:38:56.851Z,3.80
2018-07-22T10:40:59.996Z,3.97
2018-07-22T10:43:03.123Z,3.63
2018-07-22T10:45:06.268Z,3.80
2018-07-22T10:47:09.166Z,4.07
2018-07-22T10:49:12.341Z,3.70
2018-07-22T10:51:15.484Z,4.20
2018-07-22T10:53:18.712Z,4.00
2018-07-22T10:55:21.852Z,5.00
2018-07-22T10:57:24.972Z,4.33
2018-07-22T10:59:28.111Z,3.90
2018-07-22T11:01:34.454Z,3.87
2018-07-22T11:03:37.646Z,4.37
2018-07-22T11:05:40.838Z,3.73
2018-07-22T11:07:43.912Z,4.87
2018-07-22T11:09:47.146Z,4.50
2018-07-22T11:11:50.291Z,4.97
2018-07-22T11:13:53.285Z,4.07
2018-07-22T11:15:56.424Z,4.50
2018-07-22T11:18:00.180Z,4.20
2018-07-22T11:20:03.442Z,5.00
2018-07-22T11:22:07.709Z,4.23
2018-07-22T11:24:11.010Z,3.90
2018-07-22T11:26:14.115Z,4.23
2018-07-22T11:28:17.199Z,4.10
2018-07-22T11:30:20.167Z,4.47
2018-07-22T11:32:23.255Z,3.40
2018-07-22T11:34:26.230Z,3.90
2018-07-22T11:36:29.326Z,3.83
2018-07-22T11:38:32.909Z,4.53
2018-07-22T11:40:36.022Z,5.50
2018-07-22T11:42:39.125Z,4.90
2018-07-22T11:44:42.296Z,4.73
2018-07-22T11:46:45.198Z,4.37
2018-07-22T11:48:48.293Z,4.20
2018-07-22T11:50:51.391Z,4.00
2018-07-22T11:52:54.528Z,4.13
2018-07-22T11:54:57.690Z,4.53
2018-07-22T11:57:00.787Z,4.47
2018-07-22T11:59:03.991Z,4.70
2018-07-22T12:01:07.155Z,4.17
2018-07-22T12:03:10.395Z,4.20
2018-07-22T12:05:13.566Z,4.87
2018-07-22T12:07:16.784Z,4.37
2018-07-22T12:09:19.944Z,4.77
2018-07-22T12:11:23.108Z,3.83
2018-07-22T12:13:26.272Z,4.90
2018-07-22T12:15:29.421Z,4.40
2018-07-22T12:17:32.547Z,4.80
2018-07-22T12:19:36.374Z,4.10
2018-07-22T12:21:39.287Z,3.80
2018-07-22T12:23:42.528Z,4.53
2018-07-22T12:25:45.447Z,4.47
2018-07-22T12:27:48.580Z,4.57
2018-07-22T12:29:51.946Z,4.43
2018-07-22T12:31:55.094Z,4.60
2018-07-22T12:33:58.431Z,4.97
2018-07-22T12:36:01.608Z,4.33
2018-07-22T12:38:04.779Z,5.03
2018-07-22T12:40:07.915Z,4.80
2018-07-22T12:42:11.068Z,4.80
2018-07-22T12:44:14.230Z,4.13
2018-07-22T12:46:17.377Z,4.10
2018-07-22T12:48:20.517Z,4.10
2018-07-22T12:50:23.554Z,4.80
2018-07-22T12:52:26.687Z,4.73
2018-07-22T12:54:29.884Z,5.33
2018-07-22T12:56:33.046Z,4.10
2018-07-22T12:58:36.187Z,4.17
2018-07-22T13:00:39.372Z,3.70
2018-07-22T13:02:42.511Z,4.40
2018-07-22T13:04:52.070Z,4.07
2018-07-22T13:06:55.212Z,3.63
2018-07-22T13:08:58.311Z,3.80
2018-07-22T13:11:01.425Z,4.80
2018-07-22T13:13:04.554Z,4.20
2018-07-22T13:15:08.311Z,3.90
2018-07-22T13:17:11.829Z,3.80
2018-07-22T13:19:15.108Z,4.47
2018-07-22T13:21:18.005Z,4.27
2018-07-22T13:23:21.080Z,4.67
2018-07-22T13:25:24.152Z,4.10
2018-07-22T13:27:27.327Z,3.23
2018-07-22T13:29:30.392Z,4.80
2018-07-22T13:31:33.339Z,3.80
2018-07-22T13:33:36.286Z,3.90
2018-07-22T13:35:39.369Z,3.87
2018-07-22T13:37:42.262Z,4.27
2018-07-22T13:39:45.364Z,3.57
2018-07-22T13:41:48.459Z,3.37
2018-07-22T13:43:51.370Z,3.87
2018-07-22T13:45:54.455Z,3.87
2018-07-22T13:47:57.378Z,3.60
2018-07-22T13:50:00.472Z,3.63
2018-07-22T13:52:03.568Z,3.80
2018-07-22T13:54:06.690Z,4.07
2018-07-22T13:56:09.763Z,3.83
2018-07-22T13:58:12.871Z,3.77
2018-07-22T14:00:16.105Z,3.03
2018-07-22T14:02:19.175Z,3.60
2018-07-22T14:04:22.263Z,3.43
2018-07-22T14:06:25.171Z,3.50
2018-07-22T14:08:28.125Z,4.10
2018-07-22T14:10:31.092Z,3.63
2018-07-22T14:12:34.184Z,3.77
2018-07-22T14:14:37.271Z,3.70
2018-07-22T14:16:40.364Z,3.97
2018-07-22T14:18:43.448Z,4.47
2018-07-22T14:20:46.531Z,4.43
2018-07-22T14:22:49.615Z,3.90
2018-07-22T14:24:52.696Z,4.23
2018-07-22T14:26:55.788Z,4.17
2018-07-22T14:28:58.872Z,3.77
2018-07-22T14:31:01.957Z,3.47
2018-07-22T14:33:05.065Z,3.97
2018-07-22T14:35:07.974Z,4.77
2018-07-22T14:37:11.039Z,4.20
2018-07-22T14:39:14.131Z,4.53
2018-07-22T14:41:17.226Z,4.10
2018-07-22T14:43:20.293Z,4.03
2018-07-22T14:45:23.380Z,3.50
2018-07-22T14:47:26.523Z,3.43
2018-07-22T14:49:29.642Z,4.30
2018-07-22T14:51:32.539Z,4.07
2018-07-22T14:53:35.665Z,3.80
2018-07-22T14:55:38.711Z,3.83
2018-07-22T14:57:41.832Z,3.70
2018-07-22T14:59:44.722Z,3.10
2018-07-22T15:01:47.818Z,4.20
2018-07-22T15:03:50.971Z,3.70
2018-07-22T15:05:54.113Z,3.60
2018-07-22T15:07:57.271Z,4.17
2018-07-22T15:10:00.419Z,4.37
2018-07-22T15:12:03.655Z,4.40
2018-07-22T15:14:07.393Z,3.60
2018-07-22T15:16:10.532Z,4.17
2018-07-22T15:18:13.687Z,4.20
2018-07-22T15:20:17.735Z,3.23
2018-07-22T15:22:20.963Z,4.03
2018-07-22T15:24:24.136Z,3.63
2018-07-22T15:26:27.306Z,3.30
2018-07-22T15:28:30.560Z,4.50
2018-07-22T15:30:33.701Z,3.40
2018-07-22T15:32:36.828Z,4.03
2018-07-22T15:34:40.216Z,3.90
2018-07-22T15:36:43.358Z,4.40
2018-07-22T15:38:46.487Z,4.23
2018-07-22T15:40:49.776Z,3.60
2018-07-22T15:42:52.987Z,4.07
2018-07-22T15:44:56.133Z,4.50
2018-07-22T15:46:59.256Z,4.00
2018-07-22T15:49:02.419Z,3.90
2018-07-22T15:51:05.855Z,4.33
2018-07-22T15:53:09.028Z,4.07
2018-07-22T15:55:12.194Z,3.90
2018-07-22T15:57:15.359Z,4.20
2018-07-22T15:59:18.504Z,5.10
2018-07-22T16:01:21.640Z,4.30
2018-07-22T16:03:24.775Z,4.20
2018-07-22T16:05:27.714Z,5.77
2018-07-22T16:07:30.839Z,8.50
2018-07-22T16:09:33.819Z,5.53
2018-07-22T16:11:36.919Z,6.10
2018-07-22T16:13:39.828Z,4.90
2018-07-22T16:15:42.944Z,4.07
2018-07-22T16:17:46.040Z,4.50
2018-07-22T16:19:49.959Z,3.97
2018-07-22T16:21:53.083Z,4.80
2018-07-22T16:23:56.184Z,4.57
2018-07-22T16:25:59.302Z,4.63
2018-07-22T16:28:02.394Z,5.20
2018-07-22T16:30:06.303Z,5.03
2018-07-22T16:32:09.172Z,6.80
2018-07-22T16:34:12.285Z,6.70
2018-07-22T16:36:15.188Z,45.00
2018-07-22T16:38:18.269Z,7.23
2018-07-22T16:40:21.352Z,3.80
2018-07-22T16:42:24.439Z,5.53
2018-07-22T16:44:27.544Z,5.20
2018-07-22T16:46:30.627Z,4.73
2018-07-22T16:48:33.724Z,4.60
2018-07-22T16:50:36.799Z,4.90
2018-07-22T16:52:39.888Z,4.87
2018-07-22T16:54:42.971Z,4.63
2018-07-22T16:56:46.263Z,5.03
2018-07-22T16:58:49.367Z,4.83
2018-07-22T17:00:52.468Z,4.97
2018-07-22T17:02:55.639Z,4.30
2018-07-22T17:04:58.912Z,4.30
2018-07-22T17:07:02.055Z,4.60
2018-07-22T17:09:07.840Z,4.60
2018-07-22T17:11:12.007Z,4.93
2018-07-22T17:13:15.148Z,4.83
2018-07-22T17:15:18.699Z,4.63
2018-07-22T17:17:21.835Z,5.50
2018-07-22T17:19:24.980Z,6.00
2018-07-22T17:21:28.110Z,8.47
2018-07-22T17:23:32.050Z,7.90
2018-07-22T17:25:35.227Z,15.40
2018-07-22T17:27:38.351Z,7.87
2018-07-22T17:29:41.504Z,6.43
2018-07-22T17:31:44.656Z,9.80
2018-07-22T17:33:47.572Z,6.87
2018-07-22T17:35:50.733Z,5.43
2018-07-22T17:37:53.630Z,5.80
2018-07-22T17:39:59.952Z,4.90
2018-07-22T17:42:03.092Z,5.67
2018-07-22T17:44:06.635Z,4.63
2018-07-22T17:46:09.763Z,5.40
2018-07-22T17:48:12.892Z,5.30
2018-07-22T17:50:16.049Z,5.27
2018-07-22T17:52:19.188Z,5.70
2018-07-22T17:54:22.345Z,5.30
2018-07-22T17:56:25.490Z,4.90
2018-07-22T17:58:28.623Z,5.77
2018-07-22T18:00:31.777Z,5.00
2018-07-22T18:02:34.916Z,5.00
2018-07-22T18:04:38.050Z,4.60
2018-07-22T18:06:41.167Z,4.80
2018-07-22T18:08:45.487Z,4.63
2018-07-22T18:10:49.500Z,5.43
2018-07-22T18:12:52.734Z,5.07
2018-07-22T18:14:55.900Z,4.60
2018-07-22T18:16:59.039Z,4.30
2018-07-22T18:19:02.188Z,5.00
2018-07-22T18:21:06.311Z,4.43
2018-07-22T18:23:09.483Z,5.57
2018-07-22T18:25:12.680Z,4.70
2018-07-22T18:27:15.812Z,5.10
2018-07-22T18:29:18.948Z,4.80
2018-07-22T18:31:22.100Z,4.30
2018-07-22T18:33:25.223Z,6.30
2018-07-22T18:35:29.007Z,6.07
2018-07-22T18:37:32.143Z,5.20
2018-07-22T18:39:35.284Z,6.17
2018-07-22T18:41:38.411Z,5.80
2018-07-22T18:43:41.569Z,4.63
2018-07-22T18:45:44.700Z,5.70
2018-07-22T18:47:47.832Z,5.17
2018-07-22T18:49:51.014Z,4.53
2018-07-22T18:51:54.228Z,5.00
2018-07-22T18:53:57.379Z,5.50
2018-07-22T18:56:00.511Z,4.47
2018-07-22T18:58:03.637Z,5.70
2018-07-22T19:00:06.821Z,5.67
2018-07-22T19:02:09.961Z,5.77
2018-07-22T19:04:13.103Z,6.17
2018-07-22T19:06:17.288Z,5.87
2018-07-22T19:08:20.507Z,6.70
2018-07-22T19:10:23.663Z,7.60
2018-07-22T19:12:26.787Z,7.17
2018-07-22T19:14:29.939Z,7.90
2018-07-22T19:16:33.088Z,7.27
2018-07-22T19:18:36.304Z,7.37
2018-07-22T19:20:39.435Z,6.47
2018-07-22T19:22:42.571Z,7.37
2018-07-22T19:24:45.643Z,7.00
2018-07-22T19:26:48.543Z,7.33
2018-07-22T19:28:51.447Z,7.03
2018-07-22T19:30:54.415Z,8.10
2018-07-22T19:32:57.390Z,7.30
2018-07-22T19:35:00.378Z,8.20
2018-07-22T19:37:05.526Z,8.83
2018-07-22T19:39:09.511Z,7.43
2018-07-22T19:41:12.664Z,7.27
2018-07-22T19:43:15.812Z,7.40
2018-07-22T19:45:18.972Z,7.53
2018-07-22T19:47:22.107Z,7.10
2018-07-22T19:49:25.239Z,6.83
2018-07-22T19:51:28.382Z,6.70
2018-07-22T19:53:31.538Z,6.17
2018-07-22T19:55:34.499Z,8.57
2018-07-22T19:57:37.799Z,8.43
2018-07-22T19:59:40.708Z,6.80
2018-07-22T20:01:43.670Z,6.87
2018-07-22T20:03:46.631Z,6.23
2018-07-22T20:05:50.519Z,7.03
2018-07-22T20:07:53.423Z,6.47
2018-07-22T20:09:56.402Z,7.13
2018-07-22T20:11:59.379Z,7.30
2018-07-22T20:14:02.480Z,8.03
2018-07-22T20:16:06.215Z,8.50
2018-07-22T20:18:09.131Z,7.63
2018-07-22T20:20:12.959Z,8.30
2018-07-22T20:22:15.872Z,8.73
2018-07-22T20:24:18.851Z,7.67
2018-07-22T20:26:21.786Z,7.60
2018-07-22T20:28:24.928Z,8.07
2018-07-22T20:30:28.768Z,8.30
2018-07-22T20:32:31.927Z,8.17
2018-07-22T20:34:35.062Z,7.13
2018-07-22T20:36:38.271Z,6.47
2018-07-22T20:38:41.400Z,7.40
2018-07-22T20:40:44.635Z,7.80
2018-07-22T20:42:47.552Z,9.13
2018-07-22T20:44:50.471Z,8.60
2018-07-22T20:46:53.474Z,7.50
2018-07-22T20:48:56.426Z,8.23
2018-07-22T20:50:59.483Z,6.77
2018-07-22T20:53:02.404Z,7.40
2018-07-22T20:55:05.300Z,8.30
2018-07-22T20:57:08.895Z,8.23
2018-07-22T20:59:11.805Z,7.90
2018-07-22T21:01:15.255Z,7.20
2018-07-22T21:03:18.167Z,7.00
2018-07-22T21:05:21.115Z,7.83
2018-07-22T21:07:24.019Z,7.63
2018-07-22T21:09:26.972Z,7.10
2018-07-22T21:12:36.631Z,8.07
2018-07-22T21:14:39.599Z,9.00
2018-07-22T21:16:42.520Z,8.63
2018-07-22T21:18:45.422Z,8.07
2018-07-22T21:20:48.559Z,8.63
2018-07-22T21:22:51.700Z,8.03
2018-07-22T21:24:54.837Z,8.00
2018-07-22T21:26:57.967Z,7.90
2018-07-22T21:29:01.104Z,8.27
2018-07-22T21:31:04.248Z,6.93
2018-07-22T21:33:07.151Z,8.53
2018-07-22T21:35:10.160Z,8.50
2018-07-22T21:37:13.131Z,8.63
2018-07-22T21:39:16.023Z,8.00
2018-07-22T21:41:18.978Z,9.47
2018-07-22T21:43:22.010Z,8.73
2018-07-22T21:45:24.947Z,9.13
2018-07-22T21:47:27.843Z,9.83
2018-07-22T21:49:30.815Z,9.07
2018-07-22T21:51:33.687Z,9.10
2018-07-22T21:53:36.595Z,11.40
2018-07-22T21:55:39.550Z,9.83
2018-07-22T21:57:42.451Z,9.30
2018-07-22T21:59:45.434Z,10.83
2018-07-22T22:01:49.264Z,10.87
2018-07-22T22:03:52.160Z,10.37
2018-07-22T22:05:55.043Z,10.03
2018-07-22T22:07:57.940Z,10.50
2018-07-22T22:10:00.984Z,10.37
2018-07-22T22:12:03.867Z,10.23
2018-07-22T22:14:06.823Z,11.20
2018-07-22T22:16:09.924Z,10.20
2018-07-22T22:18:13.031Z,9.97
2018-07-22T22:20:16.310Z,13.03
2018-07-22T22:22:19.167Z,10.60
2018-07-22T22:24:22.275Z,11.43
2018-07-22T22:26:25.372Z,11.93
2018-07-22T22:28:28.469Z,12.70
2018-07-22T22:30:31.559Z,13.07
2018-07-22T22:32:34.682Z,12.20
2018-07-22T22:34:37.799Z,11.27
2018-07-22T22:36:40.892Z,11.53
2018-07-22T22:38:44.023Z,12.07
2018-07-22T22:40:47.101Z,10.77
2018-07-22T22:42:50.207Z,11.67
2018-07-22T22:44:53.295Z,12.17
2018-07-22T22:46:56.401Z,11.10
2018-07-22T22:48:59.495Z,12.50
2018-07-22T22:51:03.671Z,13.67
2018-07-22T22:53:06.777Z,12.20
2018-07-22T22:55:09.880Z,11.80
2018-07-22T22:57:12.976Z,12.10
2018-07-22T22:59:18.871Z,12.20
2018-07-22T23:01:21.955Z,11.57
2018-07-22T23:03:25.051Z,10.80
2018-07-22T23:05:28.131Z,12.73
2018-07-22T23:07:31.219Z,11.67
2018-07-22T23:09:34.110Z,13.17
2018-07-22T23:11:37.673Z,12.23
2018-07-22T23:13:40.767Z,11.83
2018-07-22T23:15:43.839Z,12.40
2018-07-22T23:17:46.952Z,12.57
2018-07-22T23:19:50.027Z,11.93
2018-07-22T23:21:53.128Z,12.60
2018-07-22T23:23:56.235Z,13.80
2018-07-22T23:25:59.321Z,13.03
2018-07-22T23:28:02.420Z,14.77
2018-07-22T23:30:05.579Z,14.70
2018-07-22T23:32:08.691Z,13.67
2018-07-22T23:34:11.779Z,14.13
2018-07-22T23:36:14.981Z,12.90
2018-07-22T23:38:18.098Z,14.40
2018-07-22T23:40:21.188Z,14.10
2018-07-22T23:42:24.272Z,13.87
2018-07-22T23:44:27.387Z,14.00
2018-07-22T23:46:30.492Z,15.37
2018-07-22T23:48:33.579Z,15.17
2018-07-22T23:50:36.678Z,14.50
2018-07-22T23:52:39.767Z,14.47
2018-07-22T23:54:42.861Z,15.73
2018-07-22T23:56:45.951Z,15.70
2018-07-22T23:58:49.081Z,14.70
